Terminal Aerodrome Forecast
Issued by NWS Cleveland, OH

Home | Current Version | Previous Version | Graphics & Text | Print | Product List | Glossary On
Versions: 1 2 3 4 5 6 7 8 9 10 11 12 13 14 15 16 17 18 19 20 21
608
FTUS41 KCLE 250532
TAFMFD
TAF
KMFD 250532Z 2506/2606 15006KT P6SM SKC
     FM250900 21005KT 5SM BR BKN250
     FM251300 24006KT P6SM VCSH BKN045 OVC100
     FM251800 25008KT P6SM SCT035 BKN100
     FM260000 26005KT P6SM SKC=

USA.gov is the U.S. government's official web portal to all federal, state and local government web resources and services.